Amenia, NY (12501)

9:35 PM EDT en Agosto 22, 2014 (GMT -0400)
South Ellsworth | Change Station
CLOSE
Current Station
Estación meteorológica personal
Location: Sharon, CT
Altura: 1155 ft
Estaciones meteorológicas cercanas

Alt 1155 ft 41.80 °N, 73.43 °W | Updated 1 minute ago

Overcast
Nublado
63.6 ° F
Sensación térmica 63.6 ° F
N
0.0
Viento Variable Viento desde SSE
Gusts 8.0 mph

Hoy
Alta -- | Baja -- ° F
--% Posibilidad de precipitaciones
Ayer
Alta -- | Baja -- ° F
Precip. -- pul
6:09 AM 7:43 PM
Creciente menguante, 6% visible
Presión 30.05 pul
Visibilidad 10.0 Millas
Nubes Nublado 3800 ft
Punto de rocío 62 ° F
Humedad 94%
Precipitaciones 0.00 pul
Espesor de la nieve No disponible.
UV 0 de una escala de 12
Polen 5.00 de una escala de 12
PM2.5 Buena
Flu Activity No disponible.
METAR KPOU 230053Z AUTO 00000KT 10SM OVC038 21/17 A3006 RMK AO2 SLP174 T02060167

More Conditions Fewer Conditions

Presión 30.05 pul
Visibilidad 10.0 Millas
Nubes Nublado 3800 ft
Punto de rocío 62 ° F
Humedad 94%
Precipitaciones 0.00 pul
Espesor de la nieve No disponible.
UV 0 de una escala de 12
Polen 5.00 de una escala de 12
PM2.5 Buena
Flu Activity No disponible.
METAR KPOU 230053Z AUTO 00000KT 10SM OVC038 21/17 A3006 RMK AO2 SLP174 T02060167

More Conditions Fewer Conditions

10-Day Weather Forecast

Almanac

Astronomía

Aug. 22, 2014 Salida Puesta
Hora real 6:09 AM EDT 7:43 PM EDT
Crepúsculo civil 5:40 AM EDT 8:13 PM EDT
Crepúsculo náutico 5:04 AM EDT 8:48 PM EDT
Crepúsculo astronómico 4:26 AM EDT 9:26 PM EDT
Luna 3:28 AM EDT (8/22) 5:51 PM EDT (8/22)
Horas de luz 14h 32m
Horas de luz
13h 34m
Tomorrow will be 2m 36s shorter.
Creciente menguante, 6% of the Moon is Illuminated
Hoy
Creciente menguante
Ago 25
Nueva
Sep 2
Cuarto creciente
Sep 8
Luna llena
Sep 15
Cuarto menguante

Extremos de hoy

Máximos del estado Bajos del estado

Community

WunderPhotos

Upload Photos

1,746,337 ¡fotos cargadas!

WunderBlogs® & News

Nearby

Calidad del aire

  Calidad del aire Índice AQ Contaminante
Ayer Buena
OZONE
Ayer Buena
PM2.5
Real Buena
PM2.5
Viernes Buena
OZONE
Viernes Buena
PM2.5
Sábado Buena
OZONE
Sábado Buena
PM2.5
Domingo Buena
OZONE
Domingo Buena
PM2.5
Lunes Buena
OZONE
Lunes Buena
PM2.5

Grosos de nieve

Estación Profundido Altura
No tenemos constancia de nieve nueva.

Actividad de terremotos

Ciudad Distance Mag. Tiempo y dato
No hay informes recientes de la actividad sísmica.
Magnitud mínima muestra es 2,5.

Temperaturas de aguas costeras

Lugar Temperatura
Sin partes meteorológicos de las estaciones

Estaciones meteorológicas cercanas